»·PEaware :: N350KT KGEG-KSLE

N350KT :: KGEG-KSLE

FLIGHT INFORMATION

Flight Status: Arrived
Operator: Privately registered:
United States
More flights under this callsign
Pilot: Aundrey S. (17120)
Aircraft: PILATUS PC-12 EAGLE
(PC12)
More flights by this aircraft type
Origin: KGEG Spokane Intl
United States
Destination: KSLE McNary
United States
More flights between these airports :: More routes between these airports
Route: +YKM UBG
File this flight plan on PilotEdge
Remarks:
Altitude:
(Current/Filed)
22,000ft
Speed:
(Current/Filed)
350kts
Departed: 10-May-18 08:54 PM
Arrived: 10-May-18 10:12 PM
Distance/Time
Traveled:
279nm/1:18
Distance/Time
To Go:
Arrived

Flight Plot

Page will automatically refresh every two minutes.

Flight plan parsing failed; only flown route is shown


Map Options




Map Legend


Flown Route
Filed Route
Departure Airport
Arrival Airport
Navaid (VOR, NDB)
Fix

Horizontal Profiles

Position Reports

Time Latitude Longitude Heading Altitude Ground
Speed
10-May-18 20:43 47.623506 -117.524473 269 2351ft 0kts
10-May-18 20:44 47.623506 -117.524473 269 2351ft 0kts
10-May-18 20:45 47.623506 -117.524473 269 2351ft 0kts
10-May-18 20:46 47.623506 -117.524473 269 2351ft 0kts
10-May-18 20:47 47.623506 -117.524473 269 2351ft 0kts
10-May-18 20:48 47.623506 -117.524473 269 2351ft 0kts
10-May-18 20:49 47.623506 -117.524473 269 2351ft 0kts
10-May-18 20:50 47.623506 -117.524473 269 2351ft 0kts
10-May-18 20:51 47.625478 -117.523433 45 2345ft 24kts
10-May-18 20:52 47.630181 -117.517005 327 2323ft 12kts
10-May-18 20:53 47.630473 -117.517404 315 2323ft 0kts
10-May-18 20:54 47.629849 -117.520289 223 2331ft 54kts
10-May-18 20:55 47.606160 -117.554323 218 3305ft 160kts
10-May-18 20:56 47.570024 -117.599399 219 5102ft 178kts
10-May-18 20:57 47.531725 -117.647301 219 6998ft 184kts
10-May-18 20:58 47.493965 -117.698803 241 8898ft 189kts
10-May-18 20:59 47.471995 -117.769260 243 10745ft 188kts
10-May-18 21:00 47.453491 -117.826251 246 12212ft 185kts
10-May-18 21:01 47.426925 -117.910256 245 13854ft 198kts
10-May-18 21:02 47.407318 -117.971788 242 15021ft 199kts
10-May-18 21:03 47.383067 -118.046599 239 16312ft 208kts
10-May-18 21:04 47.356985 -118.126203 240 17407ft 226kts
10-May-18 21:05 47.328940 -118.212346 243 18494ft 237kts
10-May-18 21:06 47.300209 -118.300958 242 19632ft 242kts
10-May-18 21:07 47.270852 -118.390686 242 20693ft 246kts
10-May-18 21:08 47.240791 -118.482204 242 21689ft 250kts
10-May-18 21:09 47.209154 -118.578101 242 21999ft 275kts
10-May-18 21:10 47.175781 -118.679110 241 22021ft 289kts
10-May-18 21:11 47.141971 -118.780893 242 22020ft 294kts
10-May-18 21:12 47.105925 -118.888955 242 22021ft 296kts
10-May-18 21:13 47.069681 -118.997154 242 22021ft 296kts
10-May-18 21:14 47.033157 -119.105725 242 22022ft 298kts
10-May-18 21:15 46.996250 -119.214971 242 22022ft 299kts
10-May-18 21:16 46.959356 -119.323730 242 22023ft 299kts
10-May-18 21:17 46.922164 -119.432917 242 22023ft 300kts
10-May-18 21:18 46.885255 -119.540817 243 22022ft 300kts
10-May-18 21:19 46.847896 -119.649568 243 22022ft 300kts
10-May-18 21:20 46.810845 -119.757005 242 22019ft 300kts
10-May-18 21:21 46.774046 -119.863254 242 22073ft 298kts
10-May-18 21:22 46.736538 -119.971118 242 22074ft 299kts
10-May-18 21:23 46.698223 -120.079116 247 22050ft 305kts
10-May-18 21:24 46.660449 -120.187780 250 22045ft 295kts
10-May-18 21:25 46.623687 -120.292839 250 22047ft 291kts
10-May-18 21:26 46.586899 -120.397085 250 22046ft 289kts
10-May-18 21:27 46.545782 -120.497612 243 22101ft 292kts
10-May-18 21:28 46.500517 -120.595722 243 22101ft 293kts
10-May-18 21:29 46.456220 -120.691561 242 22103ft 293kts
10-May-18 21:30 46.410677 -120.789711 242 22103ft 294kts
10-May-18 21:31 46.365069 -120.887684 243 22103ft 294kts
10-May-18 21:32 46.319387 -120.985467 243 22103ft 294kts
10-May-18 21:33 46.273576 -121.083187 243 22104ft 294kts
10-May-18 21:34 46.227736 -121.180623 243 22104ft 294kts
10-May-18 21:35 46.181857 -121.277802 243 22130ft 293kts
10-May-18 21:36 46.135875 -121.374872 243 22132ft 293kts
10-May-18 21:37 46.089778 -121.471849 243 22133ft 293kts
10-May-18 21:38 46.043731 -121.568374 243 22131ft 293kts
10-May-18 21:39 45.997987 -121.663967 243 22135ft 293kts
10-May-18 21:40 45.951678 -121.760386 243 22136ft 294kts
10-May-18 21:41 45.905225 -121.856775 243 22135ft 293kts
10-May-18 21:42 45.859621 -121.951070 243 22123ft 292kts
10-May-18 21:43 45.813603 -122.045863 243 22227ft 288kts
10-May-18 21:44 45.768945 -122.137668 243 22233ft 289kts
10-May-18 21:45 45.722959 -122.231843 243 22234ft 290kts
10-May-18 21:46 45.676672 -122.326296 244 22234ft 289kts
10-May-18 21:47 45.630482 -122.420249 244 22234ft 289kts
10-May-18 21:48 45.584196 -122.514084 244 22234ft 289kts
10-May-18 21:49 45.537514 -122.608695 243 21459ft 300kts
10-May-18 21:50 45.489116 -122.705934 244 20055ft 302kts
10-May-18 21:51 45.444844 -122.794740 245 18264ft 258kts
10-May-18 21:52 45.404395 -122.875939 243 15864ft 247kts
10-May-18 21:53 45.365484 -122.953798 242 13047ft 243kts
10-May-18 21:54 45.298482 -122.967737 174 10083ft 268kts
10-May-18 21:55 45.226597 -122.953676 172 7091ft 254kts
10-May-18 21:56 45.160029 -122.940611 172 4856ft 243kts
10-May-18 21:57 45.094356 -122.927848 172 4267ft 232kts
10-May-18 21:58 45.032323 -122.915870 172 4265ft 223kts
10-May-18 21:59 44.970818 -122.903900 174 4239ft 224kts
10-May-18 22:00 44.908184 -122.892007 174 4239ft 233kts
10-May-18 22:01 44.843144 -122.879546 174 4237ft 242kts
10-May-18 22:02 44.775914 -122.866697 174 3971ft 238kts
10-May-18 22:03 44.715455 -122.862379 194 3968ft 201kts
10-May-18 22:04 44.692705 -122.905443 321 3532ft 169kts
10-May-18 22:05 44.736739 -122.909832 356 2688ft 143kts
10-May-18 22:06 44.774477 -122.909918 355 2280ft 133kts
10-May-18 22:07 44.807903 -122.919692 328 2071ft 109kts
10-May-18 22:08 44.834305 -122.940666 327 1680ft 115kts
10-May-18 22:09 44.858537 -122.960126 325 1169ft 91kts
10-May-18 22:10 44.880416 -122.977818 324 794ft 92kts
10-May-18 22:11 44.901801 -122.995119 326 276ft 87kts
10-May-18 22:12 44.913085 -123.004641 279 201ft 13kts
10-May-18 22:13 44.912755 -123.005397 222 200ft 5kts
10-May-18 22:14 44.908655 -123.005909 220 203ft 11kts
10-May-18 22:15 44.908035 -123.007506 84 204ft 0kts
10-May-18 22:16 44.908035 -123.007507 84 204ft 0kts
10-May-18 22:17 44.908035 -123.007507 84 204ft 0kts
10-May-18 22:18 44.908035 -123.007507 84 204ft 0kts
10-May-18 22:19 44.908035 -123.007507 84 204ft 0kts
10-May-18 22:20 44.908035 -123.007507 84 204ft 0kts

Navigation Log

Ident Type
Flight plan parsing failed, navigation log unavailable